Time;durP1;ratioP1;P1;durP2;ratioP2;P2;SDS_P1;SDS_P2;PMS_P1;PMS_P2;Temp;Humidity;BMP_temperature;BMP_pressure;BME280_temperature;BME280_humidity;BME280_pressure;Samples;Min_cycle;Max_cycle;Signal;HPM_P1;HPM_P2
2021/12/14 00:01:53;;;;;;;10.60;6.40;;;5.80;99.90;;;;;;5057108;28;20094;-73
2021/12/14 00:04:28;;;;;;;11.82;6.60;;;5.80;99.90;;;;;;5057944;28;20115;-73
2021/12/14 00:06:55;;;;;;;10.80;6.05;;;5.80;99.90;;;;;;5075609;28;20020;-73
2021/12/14 00:09:25;;;;;;;12.13;6.85;;;5.80;99.90;;;;;;5075231;28;20402;-73
2021/12/14 00:17:30;;;;;;;10.75;5.95;;;5.80;99.90;;;;;;5075402;28;20115;-73
2021/12/14 00:19:59;;;;;;;10.68;5.93;;;5.80;99.90;;;;;;5075360;28;20027;-73
2021/12/14 00:25:17;;;;;;;12.32;6.78;;;5.70;99.90;;;;;;5051629;28;20032;-73
2021/12/14 00:27:43;;;;;;;11.82;6.40;;;5.70;99.90;;;;;;5074864;28;20112;-73
2021/12/14 00:30:10;;;;;;;11.82;6.93;;;5.70;99.90;;;;;;5057462;28;20055;-73
2021/12/14 00:32:37;;;;;;;11.48;7.43;;;5.70;99.90;;;;;;5092506;28;20147;-73
2021/12/14 00:35:13;;;;;;;14.27;6.38;;;5.70;99.90;;;;;;5094806;28;20036;-73
2021/12/14 00:37:45;;;;;;;10.43;6.30;;;5.70;99.90;;;;;;5093784;28;20157;-73
2021/12/14 00:40:26;;;;;;;11.70;6.72;;;5.70;99.90;;;;;;5094053;28;20024;-73
2021/12/14 00:42:54;;;;;;;11.10;6.13;;;5.70;99.90;;;;;;5095110;28;20115;-73
2021/12/14 00:45:22;;;;;;;11.98;6.93;;;5.60;99.90;;;;;;5093990;28;20034;-73
2021/12/14 00:47:49;;;;;;;13.57;6.40;;;5.60;99.90;;;;;;5094770;28;20035;-73
2021/12/14 00:50:16;;;;;;;11.93;6.78;;;5.60;99.90;;;;;;5094799;28;20488;-73
2021/12/14 00:52:43;;;;;;;9.10;5.93;;;5.60;99.90;;;;;;5094972;28;20047;-73
2021/12/14 00:55:12;;;;;;;10.32;6.13;;;5.60;99.90;;;;;;5093360;28;20027;-74
2021/12/14 00:57:38;;;;;;;14.30;7.00;;;5.60;99.90;;;;;;5094845;28;20055;-74
2021/12/14 01:00:14;;;;;;;11.45;6.57;;;5.50;99.90;;;;;;5094578;28;20476;-73
2021/12/14 01:02:41;;;;;;;12.23;6.55;;;5.60;99.90;;;;;;5093580;28;20387;-73
2021/12/14 01:05:17;;;;;;;14.98;6.88;;;5.60;99.90;;;;;;5093558;28;20024;-73
2021/12/14 01:07:43;;;;;;;11.82;6.13;;;5.50;99.90;;;;;;5093434;28;20029;-73
2021/12/14 01:10:25;;;;;;;11.35;6.85;;;5.60;99.90;;;;;;5094728;28;20082;-73
2021/12/14 01:12:55;;;;;;;13.20;7.13;;;5.50;99.90;;;;;;5092654;28;20032;-74
2021/12/14 01:15:42;;;;;;;13.50;7.28;;;5.60;99.90;;;;;;5094636;28;20019;-73
2021/12/14 01:18:29;;;;;;;14.73;7.28;;;5.50;99.90;;;;;;5093283;28;20028;-73
2021/12/14 01:21:13;;;;;;;11.77;6.70;;;5.60;99.90;;;;;;5093327;28;20463;-73
2021/12/14 01:23:39;;;;;;;11.38;6.82;;;5.60;99.90;;;;;;5094067;28;20476;-74
2021/12/14 01:26:12;;;;;;;13.48;6.30;;;5.50;99.90;;;;;;5093183;28;20028;-73
2021/12/14 01:28:41;;;;;;;13.10;7.15;;;5.50;99.90;;;;;;5094387;28;20031;-74
2021/12/14 01:31:23;;;;;;;11.20;6.35;;;5.50;99.90;;;;;;5087387;28;20048;-73
2021/12/14 01:33:54;;;;;;;13.40;6.78;;;5.50;99.90;;;;;;5074118;28;20090;-73
2021/12/14 01:36:30;;;;;;;15.68;6.85;;;5.50;99.90;;;;;;5056069;28;20119;-74
2021/12/14 01:39:23;;;;;;;12.57;6.72;;;5.50;99.90;;;;;;5056119;28;20060;-73
2021/12/14 01:41:49;;;;;;;13.73;7.32;;;5.50;99.90;;;;;;5073954;28;20021;-73
2021/12/14 01:44:15;;;;;;;17.02;8.63;;;5.50;99.90;;;;;;5073827;28;20040;-74
2021/12/14 01:46:46;;;;;;;14.13;7.10;;;5.50;99.90;;;;;;5073788;28;20464;-73
2021/12/14 01:49:14;;;;;;;13.25;6.65;;;5.50;99.90;;;;;;5073964;28;20028;-73
2021/12/14 01:51:43;;;;;;;12.38;6.95;;;5.50;99.90;;;;;;5074049;28;20025;-73
2021/12/14 01:54:11;;;;;;;16.02;8.38;;;5.50;99.90;;;;;;5055867;28;20362;-73
2021/12/14 01:56:38;;;;;;;14.40;7.13;;;5.50;99.90;;;;;;5073802;28;20032;-74
2021/12/14 01:59:11;;;;;;;15.18;7.57;;;5.50;99.90;;;;;;5055875;28;20024;-73
2021/12/14 02:01:53;;;;;;;15.75;8.18;;;5.50;99.90;;;;;;5073942;28;20075;-73
2021/12/14 02:04:21;;;;;;;13.52;7.18;;;5.50;99.90;;;;;;5055860;28;20078;-73
2021/12/14 02:06:57;;;;;;;15.82;7.95;;;5.50;99.90;;;;;;5073784;28;20021;-73
2021/12/14 02:09:26;;;;;;;17.52;7.35;;;5.60;99.90;;;;;;5073691;28;20032;-73
2021/12/14 02:11:54;;;;;;;17.10;7.82;;;5.60;99.90;;;;;;5055811;28;20028;-73
2021/12/14 02:14:22;;;;;;;13.38;7.65;;;5.60;99.90;;;;;;5073360;28;20032;-73
2021/12/14 02:16:55;;;;;;;16.85;7.70;;;5.60;99.90;;;;;;5073578;28;20388;-73
2021/12/14 02:19:21;;;;;;;16.05;7.82;;;5.60;99.90;;;;;;5055709;28;20036;-73
2021/12/14 02:21:49;;;;;;;18.33;8.15;;;5.60;99.90;;;;;;5073839;28;20025;-73
2021/12/14 02:24:19;;;;;;;19.55;6.97;;;5.70;99.90;;;;;;5057170;28;20033;-73
2021/12/14 02:26:46;;;;;;;15.02;7.45;;;5.60;99.90;;;;;;5059700;28;20101;-73
2021/12/14 02:29:20;;;;;;;17.33;7.57;;;5.70;99.90;;;;;;5077863;28;20074;-73
2021/12/14 02:31:46;;;;;;;16.95;8.02;;;5.70;99.90;;;;;;5077470;28;20055;-73
2021/12/14 02:36:57;;;;;;;14.90;7.13;;;5.70;99.90;;;;;;5077520;28;20538;-73
2021/12/14 02:39:48;;;;;;;15.98;7.65;;;5.70;99.90;;;;;;5077107;28;20107;-73
2021/12/14 02:42:23;;;;;;;17.13;7.18;;;5.70;99.90;;;;;;5076881;28;20031;-73
2021/12/14 02:44:52;;;;;;;17.95;7.78;;;5.70;99.90;;;;;;5059252;28;20024;-73
2021/12/14 02:47:18;;;;;;;13.02;7.30;;;5.80;99.90;;;;;;5077106;28;20040;-73
2021/12/14 02:52:36;;;;;;;15.88;7.50;;;5.80;99.90;;;;;;5077087;28;20039;-73
2021/12/14 02:55:26;;;;;;;15.30;7.28;;;5.80;99.90;;;;;;5076848;28;20384;-73
2021/12/14 02:57:57;;;;;;;11.80;6.10;;;5.80;99.90;;;;;;5058970;28;20025;-73
2021/12/14 03:00:33;;;;;;;15.07;7.03;;;5.80;99.90;;;;;;5059346;28;20031;-73
2021/12/14 03:03:00;;;;;;;14.77;7.43;;;5.80;99.90;;;;;;5058794;28;20039;-73
2021/12/14 03:05:29;;;;;;;13.10;7.00;;;5.80;99.90;;;;;;5059102;28;20020;-73
2021/12/14 03:08:07;;;;;;;17.23;7.50;;;5.80;99.90;;;;;;5058847;28;20028;-73
2021/12/14 03:10:53;;;;;;;15.07;7.07;;;5.90;99.90;;;;;;5058907;28;20033;-73
2021/12/14 03:13:19;;;;;;;15.43;7.53;;;5.80;99.90;;;;;;5059628;28;20025;-73
2021/12/14 03:15:52;;;;;;;15.30;7.00;;;5.80;99.90;;;;;;5076524;28;20028;-73
2021/12/14 03:18:39;;;;;;;18.50;8.18;;;5.80;99.90;;;;;;5058649;28;20464;-73
2021/12/14 03:21:05;;;;;;;15.32;7.13;;;5.80;99.90;;;;;;5058760;28;20119;-73
2021/12/14 03:23:39;;;;;;;15.98;6.70;;;5.90;99.90;;;;;;5076429;28;20083;-73
2021/12/14 03:26:07;;;;;;;14.10;7.13;;;5.90;99.90;;;;;;5058943;28;20029;-73
2021/12/14 03:28:34;;;;;;;14.30;6.70;;;5.90;99.90;;;;;;5058442;28;20483;-73
2021/12/14 03:31:27;;;;;;;15.57;6.57;;;5.90;99.90;;;;;;5076117;28;20275;-74
2021/12/14 03:33:58;;;;;;;21.52;9.20;;;5.90;99.90;;;;;;5058377;28;20472;-73
2021/12/14 03:36:34;;;;;;;15.15;7.10;;;5.90;99.90;;;;;;5075436;28;20053;-73
2021/12/14 03:39:09;;;;;;;14.77;6.75;;;5.90;99.90;;;;;;5076262;28;20036;-73
2021/12/14 03:41:40;;;;;;;14.32;6.75;;;5.90;99.90;;;;;;5076169;28;20044;-73
2021/12/14 03:44:17;;;;;;;13.27;6.93;;;5.90;99.90;;;;;;5058695;28;20028;-72
2021/12/14 03:46:49;;;;;;;18.42;7.55;;;5.90;99.90;;;;;;5076087;28;20027;-73
2021/12/14 03:49:16;;;;;;;16.60;7.85;;;5.90;99.90;;;;;;5076135;28;20090;-73
2021/12/14 03:51:43;;;;;;;12.52;6.55;;;5.90;99.90;;;;;;5075832;28;20459;-73
2021/12/14 03:54:09;;;;;;;14.77;7.10;;;5.90;99.90;;;;;;5057975;28;20116;-73
2021/12/14 03:56:36;;;;;;;14.98;7.05;;;5.90;99.90;;;;;;5075804;28;20378;-73
2021/12/14 03:59:03;;;;;;;12.88;6.55;;;5.90;99.90;;;;;;5058196;28;20392;-73
2021/12/14 04:01:35;;;;;;;13.70;6.70;;;5.90;99.90;;;;;;5057714;28;20025;-73
2021/12/14 04:04:10;;;;;;;13.27;6.60;;;5.90;99.90;;;;;;5057331;28;20093;-73
2021/12/14 04:06:36;;;;;;;16.63;7.78;;;5.90;99.90;;;;;;5057738;28;20032;-73
2021/12/14 04:09:05;;;;;;;16.98;7.22;;;5.90;99.90;;;;;;5057288;28;20074;-74
2021/12/14 04:11:32;;;;;;;15.95;7.70;;;6.00;99.90;;;;;;5075130;28;20484;-73
2021/12/14 04:13:58;;;;;;;11.80;6.20;;;6.00;99.90;;;;;;5057839;28;20040;-73
2021/12/14 04:16:25;;;;;;;12.32;6.05;;;6.00;99.90;;;;;;5075462;28;20381;-73
2021/12/14 04:18:52;;;;;;;14.85;7.63;;;6.00;99.90;;;;;;5075009;28;20071;-73
2021/12/14 04:21:19;;;;;;;14.80;6.25;;;6.00;99.90;;;;;;5057298;28;20024;-73
2021/12/14 04:23:49;;;;;;;11.75;6.63;;;6.00;99.90;;;;;;5075060;28;20033;-73
2021/12/14 04:26:17;;;;;;;16.08;6.75;;;6.00;99.90;;;;;;5075166;28;20032;-73
2021/12/14 04:28:49;;;;;;;11.85;6.22;;;6.00;99.90;;;;;;5074776;28;20059;-72
2021/12/14 04:31:17;;;;;;;10.55;5.78;;;6.00;99.90;;;;;;5069737;28;20058;-73
2021/12/14 04:33:46;;;;;;;12.60;6.47;;;6.00;99.90;;;;;;5093983;28;20062;-73
2021/12/14 04:36:15;;;;;;;14.43;7.00;;;6.10;99.90;;;;;;5095625;28;20063;-73
2021/12/14 04:52:51;;;;;;;12.85;5.70;;;6.10;99.90;;;;;;5094659;28;20410;-73
2021/12/14 04:55:17;;;;;;;16.17;6.25;;;6.10;99.90;;;;;;5093818;28;20028;-73
2021/12/14 04:57:46;;;;;;;13.32;7.03;;;6.10;99.90;;;;;;5094842;28;20086;-73
2021/12/14 05:00:14;;;;;;;;;;;6.10;99.90;;;;;;5094014;28;20024;-73
2021/12/14 05:02:42;;;;;;;11.05;5.95;;;6.10;99.90;;;;;;5094707;28;19916;-73
2021/12/14 05:05:09;;;;;;;12.73;6.43;;;6.10;99.90;;;;;;5093967;28;20131;-72
2021/12/14 05:07:49;;;;;;;13.85;5.85;;;6.10;99.90;;;;;;5094674;28;20024;-72
2021/12/14 05:10:18;;;;;;;13.00;6.28;;;6.10;99.90;;;;;;5094657;28;20026;-71
2021/12/14 05:12:47;;;;;;;11.93;6.68;;;6.10;99.90;;;;;;5093760;28;20030;-72
2021/12/14 05:15:15;;;;;;;12.82;6.35;;;6.10;99.90;;;;;;5094570;28;20031;-71
2021/12/14 05:17:42;;;;;;;14.02;6.30;;;6.10;99.90;;;;;;5092943;28;20027;-72
2021/12/14 05:20:10;;;;;;;14.02;6.68;;;6.10;99.90;;;;;;5093220;28;20031;-72
2021/12/14 05:22:41;;;;;;;11.77;6.35;;;6.10;99.90;;;;;;5094543;28;20032;-73
2021/12/14 05:25:13;;;;;;;12.98;7.05;;;6.10;99.90;;;;;;5093242;28;20020;-72
2021/12/14 05:27:44;;;;;;;14.70;6.20;;;6.10;99.90;;;;;;5094620;28;20073;-71
2021/12/14 05:30:13;;;;;;;11.85;5.95;;;6.10;99.90;;;;;;5094607;28;20103;-74
2021/12/14 05:32:40;;;;;;;15.30;6.60;;;6.00;99.90;;;;;;5092900;28;20511;-73
2021/12/14 05:35:09;;;;;;;17.02;6.85;;;6.00;99.90;;;;;;5092909;28;20031;-70
2021/12/14 05:37:44;;;;;;;15.60;7.20;;;6.00;99.90;;;;;;5094350;28;20479;-71
2021/12/14 05:40:19;;;;;;;14.43;7.63;;;6.00;99.90;;;;;;5094444;28;20439;-71
2021/12/14 05:45:29;;;;;;;14.05;6.40;;;5.90;99.90;;;;;;5094266;28;20475;-72
2021/12/14 05:47:58;;;;;;;17.00;6.80;;;5.90;99.90;;;;;;5092576;28;20032;-72
2021/12/14 05:50:28;;;;;;;14.00;6.55;;;5.90;99.90;;;;;;5094151;28;20036;-72
2021/12/14 05:52:54;;;;;;;13.55;6.30;;;5.90;99.90;;;;;;5092677;28;20064;-72
2021/12/14 05:55:24;;;;;;;13.55;6.25;;;5.90;99.90;;;;;;5093989;28;20027;-73
2021/12/14 05:57:52;;;;;;;11.07;5.93;;;5.90;99.90;;;;;;5093970;28;20487;-73
2021/12/14 06:00:18;;;;;;;11.95;6.57;;;5.90;99.90;;;;;;5092336;28;20020;-73
2021/12/14 06:02:46;;;;;;;13.48;6.93;;;5.90;99.90;;;;;;5093731;28;20040;-73
2021/12/14 06:05:14;;;;;;;14.07;6.55;;;5.90;99.90;;;;;;5092411;28;20031;-72
2021/12/14 06:07:40;;;;;;;11.97;6.87;;;5.90;99.90;;;;;;5094100;28;20032;-72
2021/12/14 06:10:07;;;;;;;11.65;6.25;;;5.90;99.90;;;;;;5093965;28;20255;-72
2021/12/14 06:12:36;;;;;;;12.68;6.40;;;5.90;99.90;;;;;;5092373;28;20042;-73
2021/12/14 06:15:03;;;;;;;;;;;5.90;99.90;;;;;;5092695;28;20024;-70
2021/12/14 06:17:33;;;;;;;11.40;7.03;;;5.90;99.90;;;;;;5092252;28;19916;-71
2021/12/14 06:20:24;;;;;;;14.52;7.28;;;5.90;99.90;;;;;;5094453;28;20436;-71
2021/12/14 06:22:52;;;;;;;15.73;7.75;;;5.90;99.90;;;;;;5093714;28;20035;-70
2021/12/14 06:25:24;;;;;;;15.20;7.28;;;5.90;99.90;;;;;;5092388;28;20361;-70
2021/12/14 06:27:53;;;;;;;11.93;7.53;;;5.90;99.90;;;;;;5092226;28;20056;-71
2021/12/14 06:30:25;;;;;;;16.70;7.38;;;6.00;99.90;;;;;;5093249;28;20062;-72
2021/12/14 06:32:58;;;;;;;14.27;7.03;;;6.00;99.90;;;;;;5073549;28;20090;-72
2021/12/14 06:35:36;;;;;;;16.23;7.45;;;6.00;99.90;;;;;;5055317;28;20029;-72
2021/12/14 06:38:25;;;;;;;14.88;7.00;;;6.00;99.90;;;;;;5073128;28;20063;-71
2021/12/14 06:41:03;;;;;;;15.38;7.85;;;6.00;99.90;;;;;;5073179;28;20107;-72
2021/12/14 06:43:56;;;;;;;15.20;7.65;;;6.00;99.90;;;;;;5073060;28;20090;-71
2021/12/14 06:46:30;;;;;;;15.85;8.32;;;6.00;99.90;;;;;;5073215;28;20489;-71
2021/12/14 06:49:01;;;;;;;19.45;8.45;;;6.00;99.90;;;;;;5073173;28;20469;-71
2021/12/14 06:51:39;;;;;;;17.52;7.68;;;6.00;99.90;;;;;;5054867;28;20024;-71
2021/12/14 06:54:11;;;;;;;13.38;7.40;;;6.00;99.90;;;;;;5073141;28;20025;-71
2021/12/14 06:56:38;;;;;;;11.80;7.05;;;6.00;99.90;;;;;;5073096;28;20032;-71
2021/12/14 06:59:11;;;;;;;15.07;7.30;;;6.00;99.90;;;;;;5072759;28;20024;-71
2021/12/14 07:01:46;;;;;;;16.75;8.65;;;6.00;99.90;;;;;;5073006;28;20052;-73
2021/12/14 07:04:22;;;;;;;17.17;7.00;;;6.00;99.90;;;;;;5054452;28;20109;-72
2021/12/14 07:06:52;;;;;;;18.92;8.23;;;6.00;99.90;;;;;;5054119;28;20098;-71
2021/12/14 07:09:24;;;;;;;12.95;7.95;;;6.00;99.90;;;;;;5072996;28;20104;-71
2021/12/14 07:12:10;;;;;;;16.52;7.55;;;6.00;99.90;;;;;;5057340;28;20377;-72
2021/12/14 07:14:44;;;;;;;14.23;7.55;;;6.00;99.90;;;;;;5058565;28;20044;-72
2021/12/14 07:17:12;;;;;;;11.48;6.35;;;6.00;99.90;;;;;;5076452;28;20025;-72
2021/12/14 07:19:58;;;;;;;15.80;7.22;;;6.00;99.90;;;;;;5076353;28;20032;-72
2021/12/14 07:22:31;;;;;;;16.92;8.45;;;6.10;99.90;;;;;;5074582;28;20107;-71
2021/12/14 07:25:09;;;;;;;15.63;6.97;;;6.10;99.90;;;;;;5058289;28;20052;-71
2021/12/14 07:27:39;;;;;;;12.60;6.80;;;6.10;99.90;;;;;;5076195;28;20024;-71
2021/12/14 07:30:19;;;;;;;14.90;7.10;;;6.10;99.90;;;;;;5058482;28;20552;-71
2021/12/14 07:33:24;;;;;;;13.35;6.45;;;6.10;99.90;;;;;;5058174;28;20049;-71
2021/12/14 07:36:05;;;;;;;17.10;6.78;;;6.10;99.90;;;;;;5075947;28;20028;-71
2021/12/14 07:38:52;;;;;;;11.98;6.43;;;6.10;99.90;;;;;;5057152;28;20020;-71
2021/12/14 07:41:20;;;;;;;14.18;6.10;;;6.10;99.90;;;;;;5058014;28;20107;-71
2021/12/14 07:43:48;;;;;;;14.95;7.15;;;6.20;99.90;;;;;;5057915;28;20047;-72
2021/12/14 07:46:48;;;;;;;10.07;6.07;;;6.20;99.90;;;;;;5075608;28;20071;-71
2021/12/14 07:49:23;;;;;;;17.02;7.97;;;6.20;99.90;;;;;;5057672;28;20025;-71
2021/12/14 07:51:54;;;;;;;16.17;8.05;;;6.20;99.90;;;;;;5057502;28;20496;-71
2021/12/14 07:54:24;;;;;;;14.95;7.97;;;6.20;99.90;;;;;;5075249;28;20029;-71
2021/12/14 07:56:58;;;;;;;14.10;7.68;;;6.20;99.90;;;;;;5057357;28;20024;-71
2021/12/14 07:59:27;;;;;;;14.80;7.05;;;6.20;99.90;;;;;;5075876;28;20127;-71
2021/12/14 08:02:14;;;;;;;11.20;6.55;;;6.30;99.90;;;;;;5057565;28;20024;-71
2021/12/14 08:04:42;;;;;;;17.38;7.07;;;6.30;99.90;;;;;;5057693;28;20495;-71
2021/12/14 08:07:08;;;;;;;12.32;6.32;;;6.30;99.90;;;;;;5075424;28;20027;-71
2021/12/14 08:09:49;;;;;;;18.05;8.68;;;6.30;99.90;;;;;;5074726;28;20029;-71
2021/12/14 08:12:29;;;;;;;10.80;6.57;;;6.30;99.90;;;;;;5075456;28;20032;-71
2021/12/14 08:15:12;;;;;;;13.50;6.75;;;6.40;99.90;;;;;;5074990;28;20031;-71
2021/12/14 08:17:39;;;;;;;12.60;6.47;;;6.40;99.90;;;;;;5057238;28;20024;-71
2021/12/14 08:20:12;;;;;;;12.00;6.65;;;6.40;99.90;;;;;;5075065;28;20147;-72
2021/12/14 08:22:41;;;;;;;12.27;6.75;;;6.40;99.90;;;;;;5074729;28;20029;-71
2021/12/14 08:25:14;;;;;;;16.20;6.43;;;6.40;99.90;;;;;;5074404;28;20028;-71
2021/12/14 08:27:41;;;;;;;14.88;6.50;;;6.50;99.90;;;;;;5075100;28;20024;-71
2021/12/14 08:30:13;;;;;;;12.38;6.50;;;6.50;99.90;;;;;;5074976;28;20021;-72
2021/12/14 08:32:41;;;;;;;11.52;5.45;;;6.50;99.90;;;;;;5074815;28;20408;-72
2021/12/14 08:35:11;;;;;;;11.10;6.28;;;6.50;99.90;;;;;;5074653;28;20492;-71
2021/12/14 08:37:50;;;;;;;11.77;5.70;;;6.60;99.90;;;;;;5074926;28;20108;-71
2021/12/14 08:40:21;;;;;;;11.10;5.35;;;6.60;99.90;;;;;;5074578;28;20028;-72
2021/12/14 08:43:03;;;;;;;12.10;6.18;;;6.60;99.90;;;;;;5074794;28;20047;-71
2021/12/14 08:45:33;;;;;;;11.80;5.40;;;6.60;99.90;;;;;;5056565;28;20547;-72
2021/12/14 08:48:02;;;;;;;9.48;5.78;;;6.60;99.90;;;;;;5057131;28;20033;-71
2021/12/14 08:50:30;;;;;;;11.02;6.50;;;6.60;99.90;;;;;;5074795;28;20029;-71
2021/12/14 08:52:56;;;;;;;8.87;5.37;;;6.70;99.90;;;;;;5074608;28;20041;-72
2021/12/14 08:55:25;;;;;;;8.63;5.35;;;6.70;99.90;;;;;;5056236;28;20040;-71
2021/12/14 08:57:51;;;;;;;12.75;6.60;;;6.70;99.90;;;;;;5074231;28;20031;-71
2021/12/14 09:00:26;;;;;;;13.30;6.32;;;6.70;99.90;;;;;;5074376;28;20392;-71
2021/12/14 09:05:45;;;;;;;10.30;5.38;;;6.70;99.90;;;;;;5074159;28;20086;-71
2021/12/14 09:08:11;;;;;;;11.07;6.25;;;6.70;99.90;;;;;;5074252;28;20039;-72
2021/12/14 09:10:38;;;;;;;12.40;5.90;;;6.70;99.90;;;;;;5073779;28;20369;-71
2021/12/14 09:13:09;;;;;;;10.68;5.65;;;6.70;99.90;;;;;;5055537;28;20033;-71
2021/12/14 09:15:45;;;;;;;10.25;5.18;;;6.70;99.90;;;;;;5074305;28;20032;-71
2021/12/14 09:18:14;;;;;;;10.27;5.72;;;6.80;99.90;;;;;;5074284;28;20025;-71
2021/12/14 09:20:48;;;;;;;10.43;5.07;;;6.80;99.90;;;;;;5074066;28;20048;-72
2021/12/14 09:23:29;;;;;;;7.07;4.35;;;6.80;99.90;;;;;;5074064;28;20283;-72
2021/12/14 09:25:55;;;;;;;7.80;4.57;;;6.80;99.90;;;;;;5056236;28;20028;-72
2021/12/14 09:28:21;;;;;;;6.82;4.05;;;6.90;99.90;;;;;;5073960;28;20025;-72
2021/12/14 09:30:55;;;;;;;6.32;3.97;;;6.90;99.90;;;;;;5060639;28;20148;-71
2021/12/14 09:33:22;;;;;;;7.90;4.15;;;7.00;99.90;;;;;;5093309;28;20165;-71
2021/12/14 09:35:48;;;;;;;9.90;4.60;;;7.10;99.90;;;;;;5094215;28;20020;-71
2021/12/14 09:38:18;;;;;;;7.63;4.68;;;7.10;99.90;;;;;;5092750;28;20115;-72
2021/12/14 09:40:50;;;;;;;9.07;4.93;;;7.10;99.90;;;;;;5094161;28;20105;-71
2021/12/14 09:43:17;;;;;;;6.72;3.75;;;7.20;99.90;;;;;;5093909;28;20119;-72
2021/12/14 09:45:50;;;;;;;8.35;4.13;;;7.20;99.90;;;;;;5094313;28;20032;-71
2021/12/14 09:48:20;;;;;;;8.88;4.20;;;7.20;99.90;;;;;;5093173;28;20028;-72
2021/12/14 09:50:48;;;;;;;7.60;4.13;;;7.20;99.90;;;;;;5092739;28;20058;-71
2021/12/14 09:53:21;;;;;;;6.43;3.80;;;7.30;99.90;;;;;;5093668;28;20480;-71
2021/12/14 09:55:49;;;;;;;6.55;4.10;;;7.30;99.90;;;;;;5093890;28;20128;-71
2021/12/14 09:58:22;;;;;;;6.63;4.07;;;7.30;99.90;;;;;;5092740;28;20028;-72
2021/12/14 10:00:57;;;;;;;7.00;3.83;;;7.20;99.90;;;;;;5094004;28;20034;-72
2021/12/14 10:03:24;;;;;;;7.60;4.22;;;7.20;99.90;;;;;;5093636;28;20032;-71
2021/12/14 10:05:52;;;;;;;8.10;4.03;;;7.20;99.90;;;;;;5093822;28;20024;-73
2021/12/14 10:08:25;;;;;;;8.98;4.50;;;7.20;99.90;;;;;;5093515;28;20085;-71
2021/12/14 10:11:00;;;;;;;9.18;4.28;;;7.20;99.90;;;;;;5092524;28;20028;-72
2021/12/14 10:13:27;;;;;;;5.60;3.13;;;7.30;99.90;;;;;;5092596;28;20032;-72
2021/12/14 10:15:55;;;;;;;6.43;3.70;;;7.30;99.90;;;;;;5092275;28;20021;-72
2021/12/14 10:18:26;;;;;;;7.30;3.65;;;7.40;99.90;;;;;;5092608;28;20020;-71
2021/12/14 10:20:58;;;;;;;5.40;3.63;;;7.40;99.90;;;;;;5093268;28;20428;-72
2021/12/14 10:23:24;;;;;;;6.28;3.70;;;7.50;99.90;;;;;;5092163;28;20032;-72
2021/12/14 10:25:53;;;;;;;6.32;3.40;;;7.50;99.90;;;;;;5092228;28;20526;-71
2021/12/14 10:28:19;;;;;;;5.43;3.47;;;7.50;99.90;;;;;;5093583;28;20031;-72
2021/12/14 10:30:53;;;;;;;7.28;3.63;;;7.50;99.90;;;;;;5091951;28;20518;-72
2021/12/14 10:33:19;;;;;;;5.50;3.38;;;7.50;99.90;;;;;;5092341;28;20469;-72
2021/12/14 10:35:50;;;;;;;6.28;3.35;;;7.50;99.90;;;;;;5092307;28;20095;-72
2021/12/14 10:38:25;;;;;;;4.45;2.90;;;7.50;99.90;;;;;;5093696;28;20021;-72
2021/12/14 10:43:45;;;;;;;5.40;3.10;;;7.50;99.90;;;;;;5093394;28;20494;-72
2021/12/14 10:46:22;;;;;;;5.60;3.10;;;7.50;99.90;;;;;;5094910;28;20030;-71
2021/12/14 10:48:49;;;;;;;7.88;3.53;;;7.60;99.90;;;;;;5097745;28;20078;-72
2021/12/14 10:51:27;;;;;;;6.00;3.17;;;7.60;99.90;;;;;;5097433;28;20056;-71
2021/12/14 10:53:55;;;;;;;5.93;3.30;;;7.60;99.90;;;;;;5095947;28;20031;-71
2021/12/14 10:56:29;;;;;;;5.95;3.65;;;7.70;99.90;;;;;;5096140;28;20020;-72
2021/12/14 10:58:59;;;;;;;5.70;3.92;;;7.70;99.90;;;;;;5097182;28;20025;-72
2021/12/14 11:01:31;;;;;;;7.53;3.45;;;7.70;99.90;;;;;;5096020;28;20035;-71
2021/12/14 11:04:11;;;;;;;7.10;3.17;;;7.80;99.90;;;;;;5097038;28;20036;-71
2021/12/14 11:06:42;;;;;;;4.80;2.80;;;7.90;99.90;;;;;;5096124;28;20028;-72
2021/12/14 11:11:38;;;;;;;;;;;8.00;99.90;;;;;;5097345;28;20483;-71
2021/12/14 11:14:10;;;;;;;5.30;3.00;;;8.00;99.90;;;;;;5096867;28;19904;-72
2021/12/14 11:19:41;;;;;;;4.90;2.42;;;8.10;99.90;;;;;;5096561;28;20051;-72
2021/12/14 11:22:20;;;;;;;3.88;2.70;;;8.10;99.90;;;;;;5096546;28;20031;-72
2021/12/14 11:24:52;;;;;;;3.78;2.60;;;8.20;99.90;;;;;;5095254;28;20514;-72
2021/12/14 11:27:23;;;;;;;4.55;2.55;;;8.20;99.90;;;;;;5096473;28;20081;-71
2021/12/14 11:30:15;;;;;;;4.32;2.50;;;8.20;99.90;;;;;;5096410;28;20028;-72
2021/12/14 11:32:43;;;;;;;3.42;2.10;;;8.20;99.90;;;;;;5076264;28;20403;-72
2021/12/14 11:35:19;;;;;;;3.10;2.50;;;8.30;99.90;;;;;;5058171;28;20073;-72
2021/12/14 11:37:45;;;;;;;4.70;2.10;;;8.30;99.90;;;;;;5058074;28;20033;-71
2021/12/14 11:40:12;;;;;;;4.38;2.72;;;8.40;99.90;;;;;;5075783;28;20097;-71
2021/12/14 11:42:38;;;;;;;5.32;3.10;;;8.40;99.90;;;;;;5057668;28;20032;-71
2021/12/14 11:45:10;;;;;;;3.63;2.00;;;8.40;99.90;;;;;;5076840;28;20031;-71
2021/12/14 11:50:28;;;;;;;2.55;2.05;;;8.60;99.90;;;;;;5076008;28;20028;-72
2021/12/14 11:53:05;;;;;;;4.32;2.38;;;8.70;99.90;;;;;;5057877;28;20032;-71
2021/12/14 11:55:51;;;;;;;4.25;2.17;;;8.80;99.90;;;;;;5075744;28;20044;-71
2021/12/14 11:58:25;;;;;;;4.13;2.08;;;8.90;99.90;;;;;;5057502;28;20025;-71
2021/12/14 12:00:56;;;;;;;3.60;2.03;;;8.90;99.90;;;;;;5057976;28;20182;-71
2021/12/14 12:03:33;;;;;;;3.35;2.00;;;8.90;99.90;;;;;;5057450;28;20128;-71
2021/12/14 12:09:33;;;;;;;;;;;8.80;99.90;;;;;;5033626;28;20034;-72
2021/12/14 12:11:59;;;;;;;2.83;1.80;;;8.70;99.90;;;;;;5053144;28;19904;-72
2021/12/14 12:14:59;;;;;;;3.83;2.00;;;8.80;99.90;;;;;;5075597;28;20029;-72
2021/12/14 12:17:42;;;;;;;4.07;2.00;;;8.80;99.90;;;;;;5070139;28;20036;-71
2021/12/14 12:20:41;;;;;;;2.55;2.03;;;8.90;99.90;;;;;;5057220;28;20024;-70
2021/12/14 12:23:15;;;;;;;;;;;9.00;99.90;;;;;;5057696;28;20081;-71
2021/12/14 12:25:46;;;;;;;2.65;1.60;;;9.00;99.90;;;;;;5075234;28;20382;-71
2021/12/14 12:28:33;;;;;;;6.72;2.00;;;9.20;99.90;;;;;;5075108;28;20074;-72
2021/12/14 12:31:06;;;;;;;3.30;2.00;;;9.20;99.90;;;;;;5075118;28;20044;-73
2021/12/14 12:33:33;;;;;;;4.55;2.70;;;9.20;99.90;;;;;;5074947;28;20111;-72
2021/12/14 12:36:02;;;;;;;4.57;2.50;;;9.20;99.90;;;;;;5074916;28;20028;-72
2021/12/14 12:38:46;;;;;;;5.35;2.42;;;9.20;99.90;;;;;;5057016;28;20503;-71
2021/12/14 12:41:16;;;;;;;4.38;2.40;;;9.10;99.90;;;;;;5074888;28;20367;-72
2021/12/14 12:43:58;;;;;;;3.65;2.35;;;9.10;99.90;;;;;;5056755;28;20035;-73
2021/12/14 12:46:30;;;;;;;5.45;2.40;;;9.10;99.90;;;;;;5075077;28;20480;-71
2021/12/14 12:49:09;;;;;;;3.03;1.83;;;9.00;99.90;;;;;;5056859;28;20032;-71
2021/12/14 12:51:43;;;;;;;4.18;2.67;;;9.10;99.90;;;;;;5074640;28;20024;-71
2021/12/14 12:54:10;;;;;;;4.10;2.33;;;9.10;99.90;;;;;;5074592;28;20032;-72
2021/12/14 12:56:38;;;;;;;3.50;2.53;;;9.10;99.90;;;;;;5074257;28;20470;-71
2021/12/14 12:59:06;;;;;;;2.70;2.20;;;9.20;99.90;;;;;;5074444;28;20453;-70
2021/12/14 13:01:32;;;;;;;6.50;2.27;;;9.10;99.90;;;;;;5074451;28;20021;-72
2021/12/14 13:03:58;;;;;;;2.95;2.17;;;9.10;99.90;;;;;;5056367;28;20355;-71
2021/12/14 13:06:24;;;;;;;3.35;2.22;;;9.10;99.90;;;;;;5074459;28;20032;-72
2021/12/14 13:08:55;;;;;;;5.75;2.15;;;9.10;99.90;;;;;;5056198;28;20025;-71
2021/12/14 13:11:26;;;;;;;2.35;1.95;;;9.00;99.90;;;;;;5056425;28;20028;-71
2021/12/14 13:13:54;;;;;;;2.80;2.00;;;9.00;99.90;;;;;;5074474;28;20036;-72
2021/12/14 13:16:28;;;;;;;2.95;1.90;;;9.00;99.90;;;;;;5056338;28;20032;-72
2021/12/14 13:18:53;;;;;;;2.22;1.58;;;8.90;99.90;;;;;;5056242;28;20384;-72
2021/12/14 13:21:46;;;;;;;2.22;1.75;;;8.90;99.90;;;;;;5056187;28;20119;-71
2021/12/14 13:24:11;;;;;;;2.85;1.52;;;8.80;99.90;;;;;;5056010;28;20028;-71
2021/12/14 13:26:40;;;;;;;2.90;2.13;;;8.80;99.90;;;;;;5074084;28;20093;-72
2021/12/14 13:29:28;;;;;;;2.70;1.67;;;8.70;99.90;;;;;;5074091;28;20070;-71
2021/12/14 13:31:59;;;;;;;3.95;2.10;;;8.70;99.90;;;;;;5040799;28;20514;-71
2021/12/14 13:34:36;;;;;;;4.45;2.35;;;8.70;99.90;;;;;;5094241;28;20059;-71
2021/12/14 13:37:21;;;;;;;3.42;2.10;;;8.70;99.90;;;;;;5092847;28;20024;-71
2021/12/14 13:39:48;;;;;;;2.33;1.80;;;8.60;99.90;;;;;;5094089;28;20028;-71
2021/12/14 13:42:41;;;;;;;2.00;1.77;;;8.60;99.90;;;;;;5093776;28;20524;-71
2021/12/14 13:45:11;;;;;;;4.45;2.45;;;8.60;99.90;;;;;;5092721;28;20055;-72
2021/12/14 13:47:38;;;;;;;3.47;2.00;;;8.50;99.90;;;;;;5093929;28;20046;-71
2021/12/14 13:50:08;;;;;;;2.97;1.92;;;8.50;99.90;;;;;;5093278;28;20028;-71
2021/12/14 13:52:33;;;;;;;3.97;2.33;;;8.50;99.90;;;;;;5092778;28;20028;-71
2021/12/14 13:55:15;;;;;;;3.75;2.30;;;8.40;99.90;;;;;;5093941;28;20503;-71
2021/12/14 13:58:16;;;;;;;3.70;2.40;;;8.40;99.90;;;;;;5092660;28;20024;-71
2021/12/14 14:01:08;;;;;;;5.70;3.10;;;8.40;99.90;;;;;;5089722;28;20396;-71
2021/12/14 14:03:37;;;;;;;4.90;2.72;;;8.30;99.90;;;;;;5089641;28;20096;-72
2021/12/14 14:06:09;;;;;;;5.43;3.40;;;8.30;99.90;;;;;;5094055;28;20027;-72
2021/12/14 14:08:40;;;;;;;5.75;3.65;;;8.20;99.90;;;;;;5093802;28;20032;-71